sensor_id;sensor_type;location;lat;lon;timestamp;P1;durP1;ratioP1;P2;durP2;ratioP2
16994;SDS011;8614;48.522;9.206;2023-07-13T00:00:47;5.33;;;5.00;;
16994;SDS011;8614;48.522;9.206;2023-07-13T00:03:13;6.17;;;4.80;;
16994;SDS011;8614;48.522;9.206;2023-07-13T00:05:40;4.40;;;3.57;;
16994;SDS011;8614;48.522;9.206;2023-07-13T00:08:07;3.37;;;2.43;;
16994;SDS011;8614;48.522;9.206;2023-07-13T00:10:38;6.13;;;5.63;;
16994;SDS011;8614;48.522;9.206;2023-07-13T00:13:08;5.23;;;4.70;;
16994;SDS011;8614;48.522;9.206;2023-07-13T00:15:35;5.40;;;5.00;;
16994;SDS011;8614;48.522;9.206;2023-07-13T00:18:02;2.23;;;2.03;;
16994;SDS011;8614;48.522;9.206;2023-07-13T00:20:29;4.50;;;4.20;;
16994;SDS011;8614;48.522;9.206;2023-07-13T00:22:56;3.70;;;2.20;;
16994;SDS011;8614;48.522;9.206;2023-07-13T00:25:23;4.30;;;4.00;;
16994;SDS011;8614;48.522;9.206;2023-07-13T00:27:53;5.80;;;5.30;;
16994;SDS011;8614;48.522;9.206;2023-07-13T00:30:21;3.90;;;3.60;;
16994;SDS011;8614;48.522;9.206;2023-07-13T00:32:49;4.70;;;4.40;;
16994;SDS011;8614;48.522;9.206;2023-07-13T00:35:16;3.23;;;2.30;;
16994;SDS011;8614;48.522;9.206;2023-07-13T00:37:43;2.50;;;2.20;;
16994;SDS011;8614;48.522;9.206;2023-07-13T00:40:10;6.53;;;5.93;;
16994;SDS011;8614;48.522;9.206;2023-07-13T00:42:38;2.33;;;2.13;;
16994;SDS011;8614;48.522;9.206;2023-07-13T00:45:07;4.00;;;2.93;;
16994;SDS011;8614;48.522;9.206;2023-07-13T00:47:51;5.00;;;4.50;;
16994;SDS011;8614;48.522;9.206;2023-07-13T00:50:18;2.30;;;2.10;;
16994;SDS011;8614;48.522;9.206;2023-07-13T00:52:48;4.73;;;4.40;;
16994;SDS011;8614;48.522;9.206;2023-07-13T00:55:18;5.30;;;4.90;;
16994;SDS011;8614;48.522;9.206;2023-07-13T00:57:47;5.73;;;5.30;;
16994;SDS011;8614;48.522;9.206;2023-07-13T01:00:14;4.83;;;4.43;;
16994;SDS011;8614;48.522;9.206;2023-07-13T01:02:43;6.10;;;4.70;;
16994;SDS011;8614;48.522;9.206;2023-07-13T01:05:14;5.40;;;5.00;;
16994;SDS011;8614;48.522;9.206;2023-07-13T01:07:43;4.97;;;4.57;;
16994;SDS011;8614;48.522;9.206;2023-07-13T01:10:11;5.77;;;4.70;;
16994;SDS011;8614;48.522;9.206;2023-07-13T01:12:39;3.03;;;2.23;;
16994;SDS011;8614;48.522;9.206;2023-07-13T01:15:32;1.97;;;1.87;;
16994;SDS011;8614;48.522;9.206;2023-07-13T01:18:03;2.57;;;2.07;;
16994;SDS011;8614;48.522;9.206;2023-07-13T01:20:32;2.23;;;2.07;;
16994;SDS011;8614;48.522;9.206;2023-07-13T01:23:05;3.63;;;2.20;;
16994;SDS011;8614;48.522;9.206;2023-07-13T01:25:33;5.93;;;2.20;;
16994;SDS011;8614;48.522;9.206;2023-07-13T01:28:02;2.17;;;2.00;;
16994;SDS011;8614;48.522;9.206;2023-07-13T01:30:30;2.83;;;2.37;;
16994;SDS011;8614;48.522;9.206;2023-07-13T01:32:57;2.67;;;2.20;;
16994;SDS011;8614;48.522;9.206;2023-07-13T01:35:25;3.73;;;2.17;;
16994;SDS011;8614;48.522;9.206;2023-07-13T01:37:52;3.43;;;2.23;;
16994;SDS011;8614;48.522;9.206;2023-07-13T01:40:20;2.67;;;2.43;;
16994;SDS011;8614;48.522;9.206;2023-07-13T01:42:47;2.43;;;2.10;;
16994;SDS011;8614;48.522;9.206;2023-07-13T01:45:14;2.03;;;1.87;;
16994;SDS011;8614;48.522;9.206;2023-07-13T01:47:41;3.70;;;2.10;;
16994;SDS011;8614;48.522;9.206;2023-07-13T01:50:08;2.10;;;1.90;;
16994;SDS011;8614;48.522;9.206;2023-07-13T01:52:36;2.17;;;1.97;;
16994;SDS011;8614;48.522;9.206;2023-07-13T01:55:03;3.30;;;2.13;;
16994;SDS011;8614;48.522;9.206;2023-07-13T01:57:32;3.10;;;2.07;;
16994;SDS011;8614;48.522;9.206;2023-07-13T01:59:59;2.03;;;1.90;;
16994;SDS011;8614;48.522;9.206;2023-07-13T02:02:25;2.37;;;2.00;;
16994;SDS011;8614;48.522;9.206;2023-07-13T02:04:52;2.97;;;2.10;;
16994;SDS011;8614;48.522;9.206;2023-07-13T02:07:20;2.40;;;2.10;;
16994;SDS011;8614;48.522;9.206;2023-07-13T02:09:47;3.13;;;2.30;;
16994;SDS011;8614;48.522;9.206;2023-07-13T02:12:13;2.03;;;1.93;;
16994;SDS011;8614;48.522;9.206;2023-07-13T02:14:42;2.07;;;1.93;;
16994;SDS011;8614;48.522;9.206;2023-07-13T02:17:09;1.83;;;1.73;;
16994;SDS011;8614;48.522;9.206;2023-07-13T02:19:36;2.60;;;2.40;;
16994;SDS011;8614;48.522;9.206;2023-07-13T02:22:03;1.87;;;1.77;;
16994;SDS011;8614;48.522;9.206;2023-07-13T02:24:30;2.00;;;1.90;;
16994;SDS011;8614;48.522;9.206;2023-07-13T02:26:58;3.20;;;3.00;;
16994;SDS011;8614;48.522;9.206;2023-07-13T02:29:24;3.90;;;3.50;;
16994;SDS011;8614;48.522;9.206;2023-07-13T02:31:52;4.70;;;3.30;;
16994;SDS011;8614;48.522;9.206;2023-07-13T02:34:20;3.10;;;2.90;;
16994;SDS011;8614;48.522;9.206;2023-07-13T02:36:47;3.30;;;3.10;;
16994;SDS011;8614;48.522;9.206;2023-07-13T02:39:14;2.87;;;2.67;;
16994;SDS011;8614;48.522;9.206;2023-07-13T02:41:41;3.43;;;3.13;;
16994;SDS011;8614;48.522;9.206;2023-07-13T02:44:09;5.13;;;4.73;;
16994;SDS011;8614;48.522;9.206;2023-07-13T02:46:39;3.63;;;3.33;;
16994;SDS011;8614;48.522;9.206;2023-07-13T02:49:08;3.80;;;3.40;;
16994;SDS011;8614;48.522;9.206;2023-07-13T02:51:35;4.47;;;3.40;;
16994;SDS011;8614;48.522;9.206;2023-07-13T02:54:03;5.60;;;5.10;;
16994;SDS011;8614;48.522;9.206;2023-07-13T02:56:33;6.30;;;5.70;;
16994;SDS011;8614;48.522;9.206;2023-07-13T02:59:00;3.50;;;3.23;;
16994;SDS011;8614;48.522;9.206;2023-07-13T03:01:27;5.17;;;4.77;;
16994;SDS011;8614;48.522;9.206;2023-07-13T03:03:54;6.70;;;6.20;;
16994;SDS011;8614;48.522;9.206;2023-07-13T03:06:22;2.80;;;2.60;;
16994;SDS011;8614;48.522;9.206;2023-07-13T03:08:52;3.90;;;3.30;;
16994;SDS011;8614;48.522;9.206;2023-07-13T03:11:20;5.70;;;5.30;;
16994;SDS011;8614;48.522;9.206;2023-07-13T03:13:53;5.40;;;5.00;;
16994;SDS011;8614;48.522;9.206;2023-07-13T03:16:23;2.50;;;2.30;;
16994;SDS011;8614;48.522;9.206;2023-07-13T03:18:51;3.77;;;2.60;;
16994;SDS011;8614;48.522;9.206;2023-07-13T03:21:18;2.50;;;2.30;;
16994;SDS011;8614;48.522;9.206;2023-07-13T03:23:46;3.47;;;2.47;;
16994;SDS011;8614;48.522;9.206;2023-07-13T03:26:14;2.43;;;2.23;;
16994;SDS011;8614;48.522;9.206;2023-07-13T03:28:44;3.47;;;2.40;;
16994;SDS011;8614;48.522;9.206;2023-07-13T03:31:16;2.33;;;2.13;;
16994;SDS011;8614;48.522;9.206;2023-07-13T03:33:45;2.53;;;2.33;;
16994;SDS011;8614;48.522;9.206;2023-07-13T03:36:14;3.90;;;3.60;;
16994;SDS011;8614;48.522;9.206;2023-07-13T03:38:44;2.53;;;2.27;;
16994;SDS011;8614;48.522;9.206;2023-07-13T03:41:14;2.90;;;2.60;;
16994;SDS011;8614;48.522;9.206;2023-07-13T03:43:42;2.70;;;2.50;;
16994;SDS011;8614;48.522;9.206;2023-07-13T03:46:10;3.07;;;2.80;;
16994;SDS011;8614;48.522;9.206;2023-07-13T03:48:36;3.93;;;3.20;;
16994;SDS011;8614;48.522;9.206;2023-07-13T03:51:05;3.03;;;2.60;;
16994;SDS011;8614;48.522;9.206;2023-07-13T03:53:32;3.00;;;2.70;;
16994;SDS011;8614;48.522;9.206;2023-07-13T03:56:00;3.33;;;3.00;;
16994;SDS011;8614;48.522;9.206;2023-07-13T03:58:29;3.43;;;2.90;;
16994;SDS011;8614;48.522;9.206;2023-07-13T04:01:04;3.17;;;2.90;;
16994;SDS011;8614;48.522;9.206;2023-07-13T04:03:33;2.87;;;2.67;;
16994;SDS011;8614;48.522;9.206;2023-07-13T04:06:00;3.43;;;3.13;;
16994;SDS011;8614;48.522;9.206;2023-07-13T04:08:28;3.10;;;2.90;;
16994;SDS011;8614;48.522;9.206;2023-07-13T04:11:00;3.43;;;3.13;;
16994;SDS011;8614;48.522;9.206;2023-07-13T04:13:27;3.30;;;3.00;;
16994;SDS011;8614;48.522;9.206;2023-07-13T04:15:55;3.70;;;3.40;;
16994;SDS011;8614;48.522;9.206;2023-07-13T04:18:21;4.03;;;3.17;;
16994;SDS011;8614;48.522;9.206;2023-07-13T04:20:49;3.80;;;3.40;;
16994;SDS011;8614;48.522;9.206;2023-07-13T04:23:16;3.47;;;2.90;;
16994;SDS011;8614;48.522;9.206;2023-07-13T04:25:43;2.97;;;2.77;;
16994;SDS011;8614;48.522;9.206;2023-07-13T04:28:12;3.47;;;3.17;;
16994;SDS011;8614;48.522;9.206;2023-07-13T04:30:39;3.17;;;2.87;;
16994;SDS011;8614;48.522;9.206;2023-07-13T04:33:05;4.03;;;3.10;;
16994;SDS011;8614;48.522;9.206;2023-07-13T04:35:33;3.37;;;3.07;;
16994;SDS011;8614;48.522;9.206;2023-07-13T04:38:00;4.70;;;4.33;;
16994;SDS011;8614;48.522;9.206;2023-07-13T04:40:28;3.10;;;2.90;;
16994;SDS011;8614;48.522;9.206;2023-07-13T04:42:55;3.30;;;3.00;;
16994;SDS011;8614;48.522;9.206;2023-07-13T04:45:24;3.30;;;3.00;;
16994;SDS011;8614;48.522;9.206;2023-07-13T04:47:50;3.33;;;3.03;;
16994;SDS011;8614;48.522;9.206;2023-07-13T04:50:17;3.20;;;2.67;;
16994;SDS011;8614;48.522;9.206;2023-07-13T04:52:48;3.30;;;3.00;;
16994;SDS011;8614;48.522;9.206;2023-07-13T04:55:15;3.30;;;3.00;;
16994;SDS011;8614;48.522;9.206;2023-07-13T04:57:43;3.00;;;2.80;;
16994;SDS011;8614;48.522;9.206;2023-07-13T05:00:10;3.43;;;3.13;;
16994;SDS011;8614;48.522;9.206;2023-07-13T05:02:39;3.10;;;2.90;;
16994;SDS011;8614;48.522;9.206;2023-07-13T05:05:06;3.40;;;3.00;;
16994;SDS011;8614;48.522;9.206;2023-07-13T05:07:33;3.10;;;2.90;;
16994;SDS011;8614;48.522;9.206;2023-07-13T05:10:00;3.33;;;3.03;;
16994;SDS011;8614;48.522;9.206;2023-07-13T05:12:28;3.10;;;2.90;;
16994;SDS011;8614;48.522;9.206;2023-07-13T05:14:54;3.20;;;2.70;;
16994;SDS011;8614;48.522;9.206;2023-07-13T05:17:21;3.30;;;3.00;;
16994;SDS011;8614;48.522;9.206;2023-07-13T05:19:49;3.30;;;3.00;;
16994;SDS011;8614;48.522;9.206;2023-07-13T05:22:16;5.60;;;5.30;;
16994;SDS011;8614;48.522;9.206;2023-07-13T05:24:43;6.80;;;6.30;;
16994;SDS011;8614;48.522;9.206;2023-07-13T05:27:10;6.40;;;6.00;;
16994;SDS011;8614;48.522;9.206;2023-07-13T05:29:37;5.47;;;5.10;;
16994;SDS011;8614;48.522;9.206;2023-07-13T05:32:04;6.60;;;6.10;;
16994;SDS011;8614;48.522;9.206;2023-07-13T05:34:31;6.63;;;6.13;;
16994;SDS011;8614;48.522;9.206;2023-07-13T05:36:59;6.60;;;6.20;;
16994;SDS011;8614;48.522;9.206;2023-07-13T05:39:26;3.07;;;2.77;;
16994;SDS011;8614;48.522;9.206;2023-07-13T05:41:53;6.47;;;5.93;;
16994;SDS011;8614;48.522;9.206;2023-07-13T05:44:19;6.63;;;6.03;;
16994;SDS011;8614;48.522;9.206;2023-07-13T05:46:46;2.83;;;2.57;;
16994;SDS011;8614;48.522;9.206;2023-07-13T05:49:13;3.20;;;2.80;;
16994;SDS011;8614;48.522;9.206;2023-07-13T05:51:40;2.80;;;2.40;;
16994;SDS011;8614;48.522;9.206;2023-07-13T05:54:08;3.60;;;2.63;;
16994;SDS011;8614;48.522;9.206;2023-07-13T05:56:35;6.40;;;5.90;;
16994;SDS011;8614;48.522;9.206;2023-07-13T05:59:02;6.57;;;6.17;;
16994;SDS011;8614;48.522;9.206;2023-07-13T06:01:29;3.60;;;3.30;;
16994;SDS011;8614;48.522;9.206;2023-07-13T06:03:56;5.53;;;5.07;;
16994;SDS011;8614;48.522;9.206;2023-07-13T06:06:23;5.67;;;5.27;;
16994;SDS011;8614;48.522;9.206;2023-07-13T06:08:50;3.40;;;2.43;;
16994;SDS011;8614;48.522;9.206;2023-07-13T06:11:19;5.20;;;4.80;;
16994;SDS011;8614;48.522;9.206;2023-07-13T06:13:47;5.13;;;4.70;;
16994;SDS011;8614;48.522;9.206;2023-07-13T06:16:14;6.30;;;2.67;;
16994;SDS011;8614;48.522;9.206;2023-07-13T06:18:41;4.33;;;3.70;;
16994;SDS011;8614;48.522;9.206;2023-07-13T06:21:09;8.07;;;5.27;;
16994;SDS011;8614;48.522;9.206;2023-07-13T06:23:36;5.63;;;5.13;;
16994;SDS011;8614;48.522;9.206;2023-07-13T06:26:03;5.47;;;4.97;;
16994;SDS011;8614;48.522;9.206;2023-07-13T06:28:32;2.43;;;2.23;;
16994;SDS011;8614;48.522;9.206;2023-07-13T06:31:00;2.70;;;2.33;;
16994;SDS011;8614;48.522;9.206;2023-07-13T06:33:27;5.67;;;5.27;;
16994;SDS011;8614;48.522;9.206;2023-07-13T06:35:53;5.77;;;5.23;;
16994;SDS011;8614;48.522;9.206;2023-07-13T06:38:20;6.63;;;6.03;;
16994;SDS011;8614;48.522;9.206;2023-07-13T06:40:47;6.50;;;6.10;;
16994;SDS011;8614;48.522;9.206;2023-07-13T06:43:14;6.83;;;6.23;;
16994;SDS011;8614;48.522;9.206;2023-07-13T06:45:43;6.30;;;5.90;;
16994;SDS011;8614;48.522;9.206;2023-07-13T06:48:12;6.37;;;5.93;;
16994;SDS011;8614;48.522;9.206;2023-07-13T06:50:39;6.50;;;6.00;;
16994;SDS011;8614;48.522;9.206;2023-07-13T06:53:07;6.20;;;5.70;;
16994;SDS011;8614;48.522;9.206;2023-07-13T06:55:34;7.77;;;5.70;;
16994;SDS011;8614;48.522;9.206;2023-07-13T06:58:01;6.20;;;5.70;;
16994;SDS011;8614;48.522;9.206;2023-07-13T07:00:27;6.50;;;5.87;;
16994;SDS011;8614;48.522;9.206;2023-07-13T07:02:56;5.63;;;5.13;;
16994;SDS011;8614;48.522;9.206;2023-07-13T07:05:22;6.30;;;5.43;;
16994;SDS011;8614;48.522;9.206;2023-07-13T07:07:49;5.43;;;4.47;;
16994;SDS011;8614;48.522;9.206;2023-07-13T07:10:17;6.10;;;5.60;;
16994;SDS011;8614;48.522;9.206;2023-07-13T07:12:44;5.57;;;5.07;;
16994;SDS011;8614;48.522;9.206;2023-07-13T07:15:11;7.50;;;5.50;;
16994;SDS011;8614;48.522;9.206;2023-07-13T07:17:39;6.63;;;5.30;;
16994;SDS011;8614;48.522;9.206;2023-07-13T07:20:07;5.50;;;5.10;;
16994;SDS011;8614;48.522;9.206;2023-07-13T07:22:35;5.97;;;5.20;;
16994;SDS011;8614;48.522;9.206;2023-07-13T07:25:02;5.80;;;5.30;;
16994;SDS011;8614;48.522;9.206;2023-07-13T07:27:29;5.80;;;5.40;;
16994;SDS011;8614;48.522;9.206;2023-07-13T07:29:56;5.70;;;5.20;;
16994;SDS011;8614;48.522;9.206;2023-07-13T07:32:23;5.83;;;4.67;;
16994;SDS011;8614;48.522;9.206;2023-07-13T07:34:50;6.27;;;4.30;;
16994;SDS011;8614;48.522;9.206;2023-07-13T07:37:18;6.13;;;5.53;;
16994;SDS011;8614;48.522;9.206;2023-07-13T07:39:45;4.53;;;3.93;;
16994;SDS011;8614;48.522;9.206;2023-07-13T07:42:12;4.20;;;3.80;;
16994;SDS011;8614;48.522;9.206;2023-07-13T07:44:39;5.60;;;5.20;;
16994;SDS011;8614;48.522;9.206;2023-07-13T07:47:07;6.57;;;5.20;;
16994;SDS011;8614;48.522;9.206;2023-07-13T07:49:34;4.67;;;4.33;;
16994;SDS011;8614;48.522;9.206;2023-07-13T07:52:01;4.57;;;3.70;;
16994;SDS011;8614;48.522;9.206;2023-07-13T07:54:29;4.90;;;4.57;;
16994;SDS011;8614;48.522;9.206;2023-07-13T07:56:56;4.37;;;4.17;;
16994;SDS011;8614;48.522;9.206;2023-07-13T07:59:23;5.10;;;4.77;;
16994;SDS011;8614;48.522;9.206;2023-07-13T08:01:50;3.43;;;2.20;;
16994;SDS011;8614;48.522;9.206;2023-07-13T08:04:17;2.53;;;2.00;;
16994;SDS011;8614;48.522;9.206;2023-07-13T08:06:43;4.33;;;2.00;;
16994;SDS011;8614;48.522;9.206;2023-07-13T08:09:10;2.67;;;1.90;;
16994;SDS011;8614;48.522;9.206;2023-07-13T08:11:38;7.37;;;3.40;;
16994;SDS011;8614;48.522;9.206;2023-07-13T08:14:05;3.33;;;2.60;;
16994;SDS011;8614;48.522;9.206;2023-07-13T08:16:32;5.50;;;5.10;;
16994;SDS011;8614;48.522;9.206;2023-07-13T08:18:59;5.93;;;5.23;;
16994;SDS011;8614;48.522;9.206;2023-07-13T08:21:26;5.97;;;5.40;;
16994;SDS011;8614;48.522;9.206;2023-07-13T08:23:53;5.70;;;5.30;;
16994;SDS011;8614;48.522;9.206;2023-07-13T08:26:20;5.47;;;5.07;;
16994;SDS011;8614;48.522;9.206;2023-07-13T08:28:48;5.50;;;5.00;;
16994;SDS011;8614;48.522;9.206;2023-07-13T08:31:15;4.57;;;4.10;;
16994;SDS011;8614;48.522;9.206;2023-07-13T08:33:41;5.63;;;5.07;;
16994;SDS011;8614;48.522;9.206;2023-07-13T08:36:08;4.90;;;4.40;;
16994;SDS011;8614;48.522;9.206;2023-07-13T08:38:35;4.03;;;3.70;;
16994;SDS011;8614;48.522;9.206;2023-07-13T08:41:04;5.33;;;4.93;;
16994;SDS011;8614;48.522;9.206;2023-07-13T08:43:38;5.50;;;5.10;;
16994;SDS011;8614;48.522;9.206;2023-07-13T08:46:08;5.40;;;4.90;;
16994;SDS011;8614;48.522;9.206;2023-07-13T08:48:39;5.30;;;4.90;;
16994;SDS011;8614;48.522;9.206;2023-07-13T08:51:12;5.70;;;5.30;;
16994;SDS011;8614;48.522;9.206;2023-07-13T08:53:51;5.77;;;5.23;;
16994;SDS011;8614;48.522;9.206;2023-07-13T08:56:23;5.93;;;4.80;;
16994;SDS011;8614;48.522;9.206;2023-07-13T08:58:53;5.10;;;4.70;;
16994;SDS011;8614;48.522;9.206;2023-07-13T09:01:28;5.10;;;4.70;;
16994;SDS011;8614;48.522;9.206;2023-07-13T09:03:59;5.80;;;5.10;;
16994;SDS011;8614;48.522;9.206;2023-07-13T09:06:34;5.40;;;5.00;;
16994;SDS011;8614;48.522;9.206;2023-07-13T09:09:12;5.60;;;5.10;;
16994;SDS011;8614;48.522;9.206;2023-07-13T09:11:52;5.77;;;5.27;;
16994;SDS011;8614;48.522;9.206;2023-07-13T09:14:37;6.27;;;5.77;;
16994;SDS011;8614;48.522;9.206;2023-07-13T09:17:12;5.63;;;5.13;;
16994;SDS011;8614;48.522;9.206;2023-07-13T09:19:46;6.00;;;5.50;;
16994;SDS011;8614;48.522;9.206;2023-07-13T09:22:19;6.03;;;5.53;;
16994;SDS011;8614;48.522;9.206;2023-07-13T09:24:50;5.90;;;5.40;;
16994;SDS011;8614;48.522;9.206;2023-07-13T09:27:22;6.00;;;5.40;;
16994;SDS011;8614;48.522;9.206;2023-07-13T09:29:51;5.33;;;4.93;;
16994;SDS011;8614;48.522;9.206;2023-07-13T09:32:25;6.77;;;5.37;;
16994;SDS011;8614;48.522;9.206;2023-07-13T09:34:53;5.70;;;4.90;;
16994;SDS011;8614;48.522;9.206;2023-07-13T09:37:21;5.90;;;5.30;;
16994;SDS011;8614;48.522;9.206;2023-07-13T09:39:54;5.70;;;5.30;;
16994;SDS011;8614;48.522;9.206;2023-07-13T09:42:24;6.03;;;5.63;;
16994;SDS011;8614;48.522;9.206;2023-07-13T09:44:54;5.40;;;5.00;;
16994;SDS011;8614;48.522;9.206;2023-07-13T09:47:23;5.55;;;5.07;;
16994;SDS011;8614;48.522;9.206;2023-07-13T09:49:57;6.28;;;5.70;;
16994;SDS011;8614;48.522;9.206;2023-07-13T09:52:26;5.40;;;5.00;;
16994;SDS011;8614;48.522;9.206;2023-07-13T09:54:54;6.18;;;5.68;;
16994;SDS011;8614;48.522;9.206;2023-07-13T09:57:25;6.10;;;5.60;;
16994;SDS011;8614;48.522;9.206;2023-07-13T09:59:54;5.88;;;5.45;;
16994;SDS011;8614;48.522;9.206;2023-07-13T10:02:25;6.25;;;5.68;;
16994;SDS011;8614;48.522;9.206;2023-07-13T10:04:58;5.93;;;5.53;;
16994;SDS011;8614;48.522;9.206;2023-07-13T10:07:28;6.10;;;5.50;;
16994;SDS011;8614;48.522;9.206;2023-07-13T10:09:55;6.53;;;5.30;;
16994;SDS011;8614;48.522;9.206;2023-07-13T10:12:25;5.30;;;4.90;;
16994;SDS011;8614;48.522;9.206;2023-07-13T10:14:54;5.78;;;5.38;;
16994;SDS011;8614;48.522;9.206;2023-07-13T10:17:25;5.70;;;5.30;;
16994;SDS011;8614;48.522;9.206;2023-07-13T10:19:59;5.78;;;5.10;;
16994;SDS011;8614;48.522;9.206;2023-07-13T10:22:31;5.40;;;4.90;;
16994;SDS011;8614;48.522;9.206;2023-07-13T10:25:11;5.90;;;5.40;;
16994;SDS011;8614;48.522;9.206;2023-07-13T10:27:42;5.47;;;5.07;;
16994;SDS011;8614;48.522;9.206;2023-07-13T10:30:12;5.63;;;5.20;;
16994;SDS011;8614;48.522;9.206;2023-07-13T10:32:43;5.87;;;4.80;;
16994;SDS011;8614;48.522;9.206;2023-07-13T10:35:13;5.50;;;4.83;;
16994;SDS011;8614;48.522;9.206;2023-07-13T10:37:44;6.47;;;5.00;;
16994;SDS011;8614;48.522;9.206;2023-07-13T10:40:16;5.27;;;4.70;;
16994;SDS011;8614;48.522;9.206;2023-07-13T10:42:48;5.40;;;5.00;;
16994;SDS011;8614;48.522;9.206;2023-07-13T10:45:19;5.70;;;5.20;;
16994;SDS011;8614;48.522;9.206;2023-07-13T10:47:48;5.20;;;4.80;;
16994;SDS011;8614;48.522;9.206;2023-07-13T10:50:20;4.90;;;4.50;;
16994;SDS011;8614;48.522;9.206;2023-07-13T10:52:52;4.93;;;4.53;;
16994;SDS011;8614;48.522;9.206;2023-07-13T10:59:11;3.20;;;2.90;;
16994;SDS011;8614;48.522;9.206;2023-07-13T11:01:54;4.17;;;1.70;;
16994;SDS011;8614;48.522;9.206;2023-07-13T11:04:26;3.97;;;2.97;;
16994;SDS011;8614;48.522;9.206;2023-07-13T11:06:58;2.80;;;1.90;;
16994;SDS011;8614;48.522;9.206;2023-07-13T11:09:36;3.50;;;1.90;;
16994;SDS011;8614;48.522;9.206;2023-07-13T11:12:10;2.50;;;1.87;;
16994;SDS011;8614;48.522;9.206;2023-07-13T11:17:53;1.80;;;1.70;;
16994;SDS011;8614;48.522;9.206;2023-07-13T11:20:35;2.27;;;1.80;;
16994;SDS011;8614;48.522;9.206;2023-07-13T11:23:15;3.20;;;1.80;;
16994;SDS011;8614;48.522;9.206;2023-07-13T11:25:53;4.33;;;4.03;;
16994;SDS011;8614;48.522;9.206;2023-07-13T11:28:24;4.00;;;3.80;;
16994;SDS011;8614;48.522;9.206;2023-07-13T11:30:59;2.93;;;1.87;;
16994;SDS011;8614;48.522;9.206;2023-07-13T11:33:29;4.90;;;4.50;;
16994;SDS011;8614;48.522;9.206;2023-07-13T11:36:14;2.03;;;1.70;;
16994;SDS011;8614;48.522;9.206;2023-07-13T11:38:49;2.67;;;1.90;;
16994;SDS011;8614;48.522;9.206;2023-07-13T11:41:26;4.70;;;4.20;;
16994;SDS011;8614;48.522;9.206;2023-07-13T11:44:04;3.73;;;2.50;;
16994;SDS011;8614;48.522;9.206;2023-07-13T11:46:33;2.50;;;2.30;;
16994;SDS011;8614;48.522;9.206;2023-07-13T11:49:00;5.00;;;4.70;;
16994;SDS011;8614;48.522;9.206;2023-07-13T11:51:28;3.07;;;1.90;;
16994;SDS011;8614;48.522;9.206;2023-07-13T11:54:00;2.63;;;2.00;;
16994;SDS011;8614;48.522;9.206;2023-07-13T11:56:29;3.57;;;2.80;;
16994;SDS011;8614;48.522;9.206;2023-07-13T11:58:57;2.67;;;2.00;;
16994;SDS011;8614;48.522;9.206;2023-07-13T12:01:30;4.27;;;2.00;;
16994;SDS011;8614;48.522;9.206;2023-07-13T12:03:58;5.33;;;2.50;;
16994;SDS011;8614;48.522;9.206;2023-07-13T12:06:28;3.63;;;2.53;;
16994;SDS011;8614;48.522;9.206;2023-07-13T12:08:57;6.43;;;2.83;;
16994;SDS011;8614;48.522;9.206;2023-07-13T12:11:26;4.03;;;2.70;;
16994;SDS011;8614;48.522;9.206;2023-07-13T12:13:53;4.37;;;2.80;;
16994;SDS011;8614;48.522;9.206;2023-07-13T12:16:23;5.30;;;4.90;;
16994;SDS011;8614;48.522;9.206;2023-07-13T12:18:53;3.07;;;2.40;;
16994;SDS011;8614;48.522;9.206;2023-07-13T12:21:22;3.27;;;2.70;;
16994;SDS011;8614;48.522;9.206;2023-07-13T12:23:53;3.63;;;3.10;;
16994;SDS011;8614;48.522;9.206;2023-07-13T12:26:22;3.90;;;1.80;;
16994;SDS011;8614;48.522;9.206;2023-07-13T12:28:49;2.30;;;1.70;;
16994;SDS011;8614;48.522;9.206;2023-07-13T12:31:25;2.23;;;1.83;;
16994;SDS011;8614;48.522;9.206;2023-07-13T12:33:58;2.93;;;2.20;;
16994;SDS011;8614;48.522;9.206;2023-07-13T12:36:26;2.53;;;1.87;;
16994;SDS011;8614;48.522;9.206;2023-07-13T12:39:04;3.17;;;1.90;;
16994;SDS011;8614;48.522;9.206;2023-07-13T12:41:40;3.83;;;2.20;;
16994;SDS011;8614;48.522;9.206;2023-07-13T12:44:12;5.27;;;4.77;;
16994;SDS011;8614;48.522;9.206;2023-07-13T12:46:50;5.77;;;3.97;;
16994;SDS011;8614;48.522;9.206;2023-07-13T12:49:29;2.90;;;2.13;;
16994;SDS011;8614;48.522;9.206;2023-07-13T12:52:00;3.90;;;3.60;;
16994;SDS011;8614;48.522;9.206;2023-07-13T12:54:29;5.27;;;4.77;;
16994;SDS011;8614;48.522;9.206;2023-07-13T12:56:59;5.43;;;4.80;;
16994;SDS011;8614;48.522;9.206;2023-07-13T12:59:30;5.37;;;4.73;;
16994;SDS011;8614;48.522;9.206;2023-07-13T13:02:01;5.17;;;4.67;;
16994;SDS011;8614;48.522;9.206;2023-07-13T13:04:28;4.90;;;4.60;;
16994;SDS011;8614;48.522;9.206;2023-07-13T13:07:00;3.37;;;3.07;;
16994;SDS011;8614;48.522;9.206;2023-07-13T13:09:28;2.20;;;2.00;;
16994;SDS011;8614;48.522;9.206;2023-07-13T13:11:55;2.57;;;1.97;;
16994;SDS011;8614;48.522;9.206;2023-07-13T13:14:23;2.43;;;1.97;;
16994;SDS011;8614;48.522;9.206;2023-07-13T13:16:50;1.80;;;1.60;;
16994;SDS011;8614;48.522;9.206;2023-07-13T13:19:19;2.23;;;2.03;;
16994;SDS011;8614;48.522;9.206;2023-07-13T13:21:49;2.80;;;1.70;;
16994;SDS011;8614;48.522;9.206;2023-07-13T13:24:18;3.03;;;2.80;;
16994;SDS011;8614;48.522;9.206;2023-07-13T13:26:46;2.47;;;2.27;;
16994;SDS011;8614;48.522;9.206;2023-07-13T13:29:15;2.93;;;2.23;;
16994;SDS011;8614;48.522;9.206;2023-07-13T13:31:45;4.57;;;2.10;;
16994;SDS011;8614;48.522;9.206;2023-07-13T13:34:13;3.87;;;1.93;;
16994;SDS011;8614;48.522;9.206;2023-07-13T13:36:41;3.57;;;3.13;;
16994;SDS011;8614;48.522;9.206;2023-07-13T13:39:15;3.70;;;3.40;;
16994;SDS011;8614;48.522;9.206;2023-07-13T13:41:45;2.63;;;2.47;;
16994;SDS011;8614;48.522;9.206;2023-07-13T13:44:13;4.00;;;2.80;;
16994;SDS011;8614;48.522;9.206;2023-07-13T13:46:41;2.20;;;2.10;;
16994;SDS011;8614;48.522;9.206;2023-07-13T13:49:12;2.10;;;1.90;;
16994;SDS011;8614;48.522;9.206;2023-07-13T13:51:41;3.23;;;1.93;;
16994;SDS011;8614;48.522;9.206;2023-07-13T13:54:10;2.83;;;2.33;;
16994;SDS011;8614;48.522;9.206;2023-07-13T13:56:38;2.03;;;1.83;;
16994;SDS011;8614;48.522;9.206;2023-07-13T13:59:07;2.97;;;2.57;;
16994;SDS011;8614;48.522;9.206;2023-07-13T14:01:34;3.53;;;2.70;;
16994;SDS011;8614;48.522;9.206;2023-07-13T14:04:02;4.37;;;3.97;;
16994;SDS011;8614;48.522;9.206;2023-07-13T14:06:32;5.47;;;5.03;;
16994;SDS011;8614;48.522;9.206;2023-07-13T14:08:59;2.27;;;2.00;;
16994;SDS011;8614;48.522;9.206;2023-07-13T14:11:27;2.70;;;2.20;;
16994;SDS011;8614;48.522;9.206;2023-07-13T14:13:57;3.23;;;3.00;;
16994;SDS011;8614;48.522;9.206;2023-07-13T14:16:25;2.90;;;2.70;;
16994;SDS011;8614;48.522;9.206;2023-07-13T14:18:54;2.03;;;1.73;;
16994;SDS011;8614;48.522;9.206;2023-07-13T14:21:24;2.70;;;1.90;;
16994;SDS011;8614;48.522;9.206;2023-07-13T14:23:54;2.53;;;1.90;;
16994;SDS011;8614;48.522;9.206;2023-07-13T14:26:22;3.80;;;3.50;;
16994;SDS011;8614;48.522;9.206;2023-07-13T14:28:51;2.43;;;1.70;;
16994;SDS011;8614;48.522;9.206;2023-07-13T14:31:20;2.03;;;1.77;;
16994;SDS011;8614;48.522;9.206;2023-07-13T14:33:49;1.80;;;1.70;;
16994;SDS011;8614;48.522;9.206;2023-07-13T14:36:20;2.23;;;2.13;;
16994;SDS011;8614;48.522;9.206;2023-07-13T14:38:52;2.80;;;1.80;;
16994;SDS011;8614;48.522;9.206;2023-07-13T14:41:21;2.10;;;1.80;;
16994;SDS011;8614;48.522;9.206;2023-07-13T14:43:48;2.60;;;1.73;;
16994;SDS011;8614;48.522;9.206;2023-07-13T14:46:24;3.17;;;1.90;;
16994;SDS011;8614;48.522;9.206;2023-07-13T14:48:58;4.17;;;1.80;;
16994;SDS011;8614;48.522;9.206;2023-07-13T14:51:28;2.70;;;1.87;;
16994;SDS011;8614;48.522;9.206;2023-07-13T14:54:00;2.03;;;1.83;;
16994;SDS011;8614;48.522;9.206;2023-07-13T14:56:31;4.20;;;1.90;;
16994;SDS011;8614;48.522;9.206;2023-07-13T14:58:58;3.47;;;1.87;;
16994;SDS011;8614;48.522;9.206;2023-07-13T15:01:24;3.70;;;1.90;;
16994;SDS011;8614;48.522;9.206;2023-07-13T15:03:52;2.90;;;2.00;;
16994;SDS011;8614;48.522;9.206;2023-07-13T15:06:19;2.00;;;1.80;;
16994;SDS011;8614;48.522;9.206;2023-07-13T15:08:46;1.70;;;1.60;;
16994;SDS011;8614;48.522;9.206;2023-07-13T15:11:15;4.20;;;2.80;;
16994;SDS011;8614;48.522;9.206;2023-07-13T15:13:43;8.47;;;2.10;;
16994;SDS011;8614;48.522;9.206;2023-07-13T15:16:21;3.77;;;2.70;;
16994;SDS011;8614;48.522;9.206;2023-07-13T15:18:50;3.57;;;2.20;;